sensor_id;sensor_type;location;lat;lon;timestamp;temperature;humidity
5429;DHT22;2737;52.386;9.980;2024-02-26T00:01:17;2.10;99.90
5429;DHT22;2737;52.386;9.980;2024-02-26T00:03:44;2.10;99.90
5429;DHT22;2737;52.386;9.980;2024-02-26T00:06:12;2.10;99.90
5429;DHT22;2737;52.386;9.980;2024-02-26T00:08:39;2.10;99.90
5429;DHT22;2737;52.386;9.980;2024-02-26T00:11:06;2.10;99.90
5429;DHT22;2737;52.386;9.980;2024-02-26T00:13:33;2.10;99.90
5429;DHT22;2737;52.386;9.980;2024-02-26T00:16:00;2.10;99.90
5429;DHT22;2737;52.386;9.980;2024-02-26T00:18:29;2.20;99.90
5429;DHT22;2737;52.386;9.980;2024-02-26T00:20:56;2.10;99.90
5429;DHT22;2737;52.386;9.980;2024-02-26T00:23:23;2.10;99.90
5429;DHT22;2737;52.386;9.980;2024-02-26T00:25:50;2.00;99.90
5429;DHT22;2737;52.386;9.980;2024-02-26T00:28:17;2.00;99.90
5429;DHT22;2737;52.386;9.980;2024-02-26T00:30:45;2.00;99.90
5429;DHT22;2737;52.386;9.980;2024-02-26T00:33:12;2.00;99.90
5429;DHT22;2737;52.386;9.980;2024-02-26T00:35:41;2.00;99.90
5429;DHT22;2737;52.386;9.980;2024-02-26T00:38:08;2.10;99.90
5429;DHT22;2737;52.386;9.980;2024-02-26T00:40:35;2.20;99.90
5429;DHT22;2737;52.386;9.980;2024-02-26T00:43:02;2.20;99.90
5429;DHT22;2737;52.386;9.980;2024-02-26T00:45:29;2.20;99.90
5429;DHT22;2737;52.386;9.980;2024-02-26T00:47:57;2.10;99.90
5429;DHT22;2737;52.386;9.980;2024-02-26T00:50:26;2.10;99.90
5429;DHT22;2737;52.386;9.980;2024-02-26T00:52:55;2.10;99.90
5429;DHT22;2737;52.386;9.980;2024-02-26T00:55:22;2.10;99.90
5429;DHT22;2737;52.386;9.980;2024-02-26T00:57:49;2.20;99.90
5429;DHT22;2737;52.386;9.980;2024-02-26T01:00:17;2.10;99.90
5429;DHT22;2737;52.386;9.980;2024-02-26T01:02:44;2.10;99.90
5429;DHT22;2737;52.386;9.980;2024-02-26T01:05:12;2.10;99.90
5429;DHT22;2737;52.386;9.980;2024-02-26T01:07:39;2.00;99.90
5429;DHT22;2737;52.386;9.980;2024-02-26T01:10:08;2.10;99.90
5429;DHT22;2737;52.386;9.980;2024-02-26T01:12:35;2.10;99.90
5429;DHT22;2737;52.386;9.980;2024-02-26T01:15:03;2.10;99.90
5429;DHT22;2737;52.386;9.980;2024-02-26T01:17:30;2.00;99.90
5429;DHT22;2737;52.386;9.980;2024-02-26T01:19:57;2.00;99.90
5429;DHT22;2737;52.386;9.980;2024-02-26T01:22:25;2.00;99.90
5429;DHT22;2737;52.386;9.980;2024-02-26T01:24:51;2.00;99.90
5429;DHT22;2737;52.386;9.980;2024-02-26T01:27:20;2.00;99.90
5429;DHT22;2737;52.386;9.980;2024-02-26T01:29:52;2.10;99.90
5429;DHT22;2737;52.386;9.980;2024-02-26T01:32:19;2.10;99.90
5429;DHT22;2737;52.386;9.980;2024-02-26T01:34:46;2.10;99.90
5429;DHT22;2737;52.386;9.980;2024-02-26T01:37:13;2.10;99.90
5429;DHT22;2737;52.386;9.980;2024-02-26T01:39:40;2.10;99.90
5429;DHT22;2737;52.386;9.980;2024-02-26T01:42:07;2.10;99.90
5429;DHT22;2737;52.386;9.980;2024-02-26T01:44:36;2.10;99.90
5429;DHT22;2737;52.386;9.980;2024-02-26T01:47:04;2.10;99.90
5429;DHT22;2737;52.386;9.980;2024-02-26T01:49:32;2.10;99.90
5429;DHT22;2737;52.386;9.980;2024-02-26T01:51:59;2.10;99.90
5429;DHT22;2737;52.386;9.980;2024-02-26T01:54:26;2.10;99.90
5429;DHT22;2737;52.386;9.980;2024-02-26T01:56:54;2.20;99.90
5429;DHT22;2737;52.386;9.980;2024-02-26T01:59:22;2.20;99.90
5429;DHT22;2737;52.386;9.980;2024-02-26T02:01:54;2.10;99.90
5429;DHT22;2737;52.386;9.980;2024-02-26T02:04:23;2.10;99.90
5429;DHT22;2737;52.386;9.980;2024-02-26T02:06:50;2.00;99.90
5429;DHT22;2737;52.386;9.980;2024-02-26T02:09:18;2.00;99.90
5429;DHT22;2737;52.386;9.980;2024-02-26T02:11:47;2.00;99.90
5429;DHT22;2737;52.386;9.980;2024-02-26T02:14:14;2.00;99.90
5429;DHT22;2737;52.386;9.980;2024-02-26T02:16:41;1.80;99.90
5429;DHT22;2737;52.386;9.980;2024-02-26T02:19:10;1.80;99.90
5429;DHT22;2737;52.386;9.980;2024-02-26T02:21:38;1.80;99.90
5429;DHT22;2737;52.386;9.980;2024-02-26T02:24:05;1.90;99.90
5429;DHT22;2737;52.386;9.980;2024-02-26T02:26:32;1.90;99.90
5429;DHT22;2737;52.386;9.980;2024-02-26T02:29:00;1.90;99.90
5429;DHT22;2737;52.386;9.980;2024-02-26T02:31:28;1.90;99.90
5429;DHT22;2737;52.386;9.980;2024-02-26T02:33:55;1.90;99.90
5429;DHT22;2737;52.386;9.980;2024-02-26T02:36:22;1.90;99.90
5429;DHT22;2737;52.386;9.980;2024-02-26T02:38:51;1.90;99.90
5429;DHT22;2737;52.386;9.980;2024-02-26T02:41:18;1.90;99.90
5429;DHT22;2737;52.386;9.980;2024-02-26T02:43:46;1.90;99.90
5429;DHT22;2737;52.386;9.980;2024-02-26T02:46:13;1.90;99.90
5429;DHT22;2737;52.386;9.980;2024-02-26T02:48:41;2.00;99.90
5429;DHT22;2737;52.386;9.980;2024-02-26T02:51:09;2.00;99.90
5429;DHT22;2737;52.386;9.980;2024-02-26T02:53:36;2.00;99.90
5429;DHT22;2737;52.386;9.980;2024-02-26T02:56:05;2.00;99.90
5429;DHT22;2737;52.386;9.980;2024-02-26T02:58:32;2.10;99.90
5429;DHT22;2737;52.386;9.980;2024-02-26T03:00:59;2.10;99.90
5429;DHT22;2737;52.386;9.980;2024-02-26T03:03:26;2.10;99.90
5429;DHT22;2737;52.386;9.980;2024-02-26T03:05:54;2.10;99.90
5429;DHT22;2737;52.386;9.980;2024-02-26T03:08:22;2.10;99.90
5429;DHT22;2737;52.386;9.980;2024-02-26T03:10:49;2.10;99.90
5429;DHT22;2737;52.386;9.980;2024-02-26T03:13:18;2.00;99.90
5429;DHT22;2737;52.386;9.980;2024-02-26T03:15:45;2.00;99.90
5429;DHT22;2737;52.386;9.980;2024-02-26T03:18:12;1.90;99.90
5429;DHT22;2737;52.386;9.980;2024-02-26T03:20:39;1.80;99.90
5429;DHT22;2737;52.386;9.980;2024-02-26T03:23:06;1.80;99.90
5429;DHT22;2737;52.386;9.980;2024-02-26T03:25:35;1.80;99.90
5429;DHT22;2737;52.386;9.980;2024-02-26T03:28:02;1.90;99.90
5429;DHT22;2737;52.386;9.980;2024-02-26T03:30:31;1.90;99.90
5429;DHT22;2737;52.386;9.980;2024-02-26T03:32:58;1.90;99.90
5429;DHT22;2737;52.386;9.980;2024-02-26T03:35:25;1.90;99.90
5429;DHT22;2737;52.386;9.980;2024-02-26T03:37:52;1.90;99.90
5429;DHT22;2737;52.386;9.980;2024-02-26T03:40:19;1.90;99.90
5429;DHT22;2737;52.386;9.980;2024-02-26T03:42:46;2.00;99.90
5429;DHT22;2737;52.386;9.980;2024-02-26T03:45:13;1.90;99.90
5429;DHT22;2737;52.386;9.980;2024-02-26T03:47:41;2.00;99.90
5429;DHT22;2737;52.386;9.980;2024-02-26T03:50:08;1.90;99.90
5429;DHT22;2737;52.386;9.980;2024-02-26T03:52:35;1.90;99.90
5429;DHT22;2737;52.386;9.980;2024-02-26T03:55:02;1.90;99.90
5429;DHT22;2737;52.386;9.980;2024-02-26T03:57:30;1.90;99.90
5429;DHT22;2737;52.386;9.980;2024-02-26T03:59:57;1.90;99.90
5429;DHT22;2737;52.386;9.980;2024-02-26T04:02:24;1.90;99.90
5429;DHT22;2737;52.386;9.980;2024-02-26T04:04:52;2.00;99.90
5429;DHT22;2737;52.386;9.980;2024-02-26T04:07:19;1.90;99.90
5429;DHT22;2737;52.386;9.980;2024-02-26T04:09:46;2.00;99.90
5429;DHT22;2737;52.386;9.980;2024-02-26T04:12:13;2.00;99.90
5429;DHT22;2737;52.386;9.980;2024-02-26T04:14:40;2.00;99.90
5429;DHT22;2737;52.386;9.980;2024-02-26T04:17:07;2.00;99.90
5429;DHT22;2737;52.386;9.980;2024-02-26T04:19:34;2.00;99.90
5429;DHT22;2737;52.386;9.980;2024-02-26T04:22:03;2.00;99.90
5429;DHT22;2737;52.386;9.980;2024-02-26T04:24:33;2.00;99.90
5429;DHT22;2737;52.386;9.980;2024-02-26T04:27:00;2.00;99.90
5429;DHT22;2737;52.386;9.980;2024-02-26T04:29:27;2.10;99.90
5429;DHT22;2737;52.386;9.980;2024-02-26T04:31:54;2.00;99.90
5429;DHT22;2737;52.386;9.980;2024-02-26T04:34:21;2.00;99.90
5429;DHT22;2737;52.386;9.980;2024-02-26T04:36:48;2.00;99.90
5429;DHT22;2737;52.386;9.980;2024-02-26T04:39:16;2.00;99.90
5429;DHT22;2737;52.386;9.980;2024-02-26T04:41:43;2.00;99.90
5429;DHT22;2737;52.386;9.980;2024-02-26T04:44:10;2.00;99.90
5429;DHT22;2737;52.386;9.980;2024-02-26T04:46:37;2.00;99.90
5429;DHT22;2737;52.386;9.980;2024-02-26T04:49:04;2.00;99.90
5429;DHT22;2737;52.386;9.980;2024-02-26T04:51:31;2.00;99.90
5429;DHT22;2737;52.386;9.980;2024-02-26T04:53:58;2.00;99.90
5429;DHT22;2737;52.386;9.980;2024-02-26T04:56:27;2.00;99.90
5429;DHT22;2737;52.386;9.980;2024-02-26T04:58:54;2.00;99.90
5429;DHT22;2737;52.386;9.980;2024-02-26T05:01:21;2.00;99.90
5429;DHT22;2737;52.386;9.980;2024-02-26T05:03:48;2.00;99.90
5429;DHT22;2737;52.386;9.980;2024-02-26T05:06:15;2.00;99.90
5429;DHT22;2737;52.386;9.980;2024-02-26T05:08:42;2.00;99.90
5429;DHT22;2737;52.386;9.980;2024-02-26T05:11:09;2.00;99.90
5429;DHT22;2737;52.386;9.980;2024-02-26T05:13:38;2.10;99.90
5429;DHT22;2737;52.386;9.980;2024-02-26T05:16:05;2.10;99.90
5429;DHT22;2737;52.386;9.980;2024-02-26T05:18:32;2.20;99.90
5429;DHT22;2737;52.386;9.980;2024-02-26T05:21:00;2.10;99.90
5429;DHT22;2737;52.386;9.980;2024-02-26T05:23:29;2.10;99.90
5429;DHT22;2737;52.386;9.980;2024-02-26T05:25:56;2.10;99.90
5429;DHT22;2737;52.386;9.980;2024-02-26T05:28:23;2.10;99.90
5429;DHT22;2737;52.386;9.980;2024-02-26T05:30:51;2.10;99.90
5429;DHT22;2737;52.386;9.980;2024-02-26T05:33:18;2.10;99.90
5429;DHT22;2737;52.386;9.980;2024-02-26T05:35:45;2.20;99.90
5429;DHT22;2737;52.386;9.980;2024-02-26T05:38:12;2.20;99.90
5429;DHT22;2737;52.386;9.980;2024-02-26T05:40:39;2.20;99.90
5429;DHT22;2737;52.386;9.980;2024-02-26T05:43:06;2.20;99.90
5429;DHT22;2737;52.386;9.980;2024-02-26T05:45:33;2.20;99.90
5429;DHT22;2737;52.386;9.980;2024-02-26T05:48:01;2.20;99.90
5429;DHT22;2737;52.386;9.980;2024-02-26T05:50:28;2.20;99.90
5429;DHT22;2737;52.386;9.980;2024-02-26T05:52:55;2.20;99.90
5429;DHT22;2737;52.386;9.980;2024-02-26T05:55:23;2.30;99.90
5429;DHT22;2737;52.386;9.980;2024-02-26T05:57:50;2.30;99.90
5429;DHT22;2737;52.386;9.980;2024-02-26T06:00:17;2.30;99.90
5429;DHT22;2737;52.386;9.980;2024-02-26T06:02:44;2.30;99.90
5429;DHT22;2737;52.386;9.980;2024-02-26T06:05:12;2.30;99.90
5429;DHT22;2737;52.386;9.980;2024-02-26T06:07:39;2.40;99.90
5429;DHT22;2737;52.386;9.980;2024-02-26T06:10:07;2.40;99.90
5429;DHT22;2737;52.386;9.980;2024-02-26T06:12:35;2.40;99.90
5429;DHT22;2737;52.386;9.980;2024-02-26T06:15:03;2.50;99.90
5429;DHT22;2737;52.386;9.980;2024-02-26T06:17:30;2.40;99.90
5429;DHT22;2737;52.386;9.980;2024-02-26T06:19:57;2.40;99.90
5429;DHT22;2737;52.386;9.980;2024-02-26T06:22:27;2.50;99.90
5429;DHT22;2737;52.386;9.980;2024-02-26T06:24:54;2.50;99.90
5429;DHT22;2737;52.386;9.980;2024-02-26T06:27:21;2.50;99.90
5429;DHT22;2737;52.386;9.980;2024-02-26T06:29:48;2.50;99.90
5429;DHT22;2737;52.386;9.980;2024-02-26T06:32:15;2.50;99.90
5429;DHT22;2737;52.386;9.980;2024-02-26T06:34:42;2.50;99.90
5429;DHT22;2737;52.386;9.980;2024-02-26T06:37:09;2.50;99.90
5429;DHT22;2737;52.386;9.980;2024-02-26T06:39:37;2.60;99.90
5429;DHT22;2737;52.386;9.980;2024-02-26T06:42:05;2.50;99.90
5429;DHT22;2737;52.386;9.980;2024-02-26T06:44:33;2.50;99.90
5429;DHT22;2737;52.386;9.980;2024-02-26T06:47:01;2.50;99.90
5429;DHT22;2737;52.386;9.980;2024-02-26T06:49:28;2.60;99.90
5429;DHT22;2737;52.386;9.980;2024-02-26T06:51:55;2.60;99.90
5429;DHT22;2737;52.386;9.980;2024-02-26T06:54:22;2.60;99.90
5429;DHT22;2737;52.386;9.980;2024-02-26T06:56:51;2.60;99.90
5429;DHT22;2737;52.386;9.980;2024-02-26T06:59:18;2.60;99.90
5429;DHT22;2737;52.386;9.980;2024-02-26T07:01:45;2.60;99.90
5429;DHT22;2737;52.386;9.980;2024-02-26T07:04:12;2.70;99.90
5429;DHT22;2737;52.386;9.980;2024-02-26T07:06:39;2.70;99.90
5429;DHT22;2737;52.386;9.980;2024-02-26T07:09:07;2.70;99.90
5429;DHT22;2737;52.386;9.980;2024-02-26T07:11:34;2.70;99.90
5429;DHT22;2737;52.386;9.980;2024-02-26T07:14:02;2.80;99.90
5429;DHT22;2737;52.386;9.980;2024-02-26T07:16:29;2.80;99.90
5429;DHT22;2737;52.386;9.980;2024-02-26T07:18:57;2.90;99.90
5429;DHT22;2737;52.386;9.980;2024-02-26T07:21:23;2.90;99.90
5429;DHT22;2737;52.386;9.980;2024-02-26T07:23:52;3.00;99.90
5429;DHT22;2737;52.386;9.980;2024-02-26T07:26:19;3.00;99.90
5429;DHT22;2737;52.386;9.980;2024-02-26T07:28:46;3.00;99.90
5429;DHT22;2737;52.386;9.980;2024-02-26T07:31:14;3.10;99.90
5429;DHT22;2737;52.386;9.980;2024-02-26T07:33:41;3.10;99.90
5429;DHT22;2737;52.386;9.980;2024-02-26T07:36:08;3.20;99.90
5429;DHT22;2737;52.386;9.980;2024-02-26T07:38:35;3.20;99.90
5429;DHT22;2737;52.386;9.980;2024-02-26T07:41:02;3.20;99.90
5429;DHT22;2737;52.386;9.980;2024-02-26T07:43:29;3.20;99.90
5429;DHT22;2737;52.386;9.980;2024-02-26T07:45:57;3.30;99.90
5429;DHT22;2737;52.386;9.980;2024-02-26T07:48:26;3.30;99.90
5429;DHT22;2737;52.386;9.980;2024-02-26T07:50:53;3.30;99.90
5429;DHT22;2737;52.386;9.980;2024-02-26T07:53:20;3.30;99.90
5429;DHT22;2737;52.386;9.980;2024-02-26T07:55:47;3.30;99.90
5429;DHT22;2737;52.386;9.980;2024-02-26T07:58:14;3.40;99.90
5429;DHT22;2737;52.386;9.980;2024-02-26T08:00:41;3.40;99.90
5429;DHT22;2737;52.386;9.980;2024-02-26T08:03:09;3.40;99.90
5429;DHT22;2737;52.386;9.980;2024-02-26T08:05:37;3.50;99.90
5429;DHT22;2737;52.386;9.980;2024-02-26T08:08:06;3.50;99.90
5429;DHT22;2737;52.386;9.980;2024-02-26T08:10:34;3.50;99.90
5429;DHT22;2737;52.386;9.980;2024-02-26T08:13:01;3.50;99.90
5429;DHT22;2737;52.386;9.980;2024-02-26T08:15:31;3.50;99.90
5429;DHT22;2737;52.386;9.980;2024-02-26T08:17:59;3.60;99.90
5429;DHT22;2737;52.386;9.980;2024-02-26T08:20:28;3.60;99.90
5429;DHT22;2737;52.386;9.980;2024-02-26T08:22:56;3.70;99.90
5429;DHT22;2737;52.386;9.980;2024-02-26T08:25:24;3.70;99.90
5429;DHT22;2737;52.386;9.980;2024-02-26T08:27:51;3.70;99.90
5429;DHT22;2737;52.386;9.980;2024-02-26T08:30:19;3.70;99.90
5429;DHT22;2737;52.386;9.980;2024-02-26T08:32:47;3.80;99.90
5429;DHT22;2737;52.386;9.980;2024-02-26T08:35:14;3.80;99.90
5429;DHT22;2737;52.386;9.980;2024-02-26T08:37:44;3.90;99.90
5429;DHT22;2737;52.386;9.980;2024-02-26T08:40:13;3.90;99.90
5429;DHT22;2737;52.386;9.980;2024-02-26T08:42:40;4.00;99.90
5429;DHT22;2737;52.386;9.980;2024-02-26T08:45:08;4.00;99.90
5429;DHT22;2737;52.386;9.980;2024-02-26T08:47:35;4.10;99.90
5429;DHT22;2737;52.386;9.980;2024-02-26T08:50:02;4.10;99.90
5429;DHT22;2737;52.386;9.980;2024-02-26T08:52:30;4.10;99.90
5429;DHT22;2737;52.386;9.980;2024-02-26T08:54:57;4.20;99.90
5429;DHT22;2737;52.386;9.980;2024-02-26T08:57:25;4.20;99.90
5429;DHT22;2737;52.386;9.980;2024-02-26T08:59:53;4.20;99.90
5429;DHT22;2737;52.386;9.980;2024-02-26T09:02:20;4.30;99.90
5429;DHT22;2737;52.386;9.980;2024-02-26T09:04:47;4.30;99.90
5429;DHT22;2737;52.386;9.980;2024-02-26T09:07:14;4.30;99.90
5429;DHT22;2737;52.386;9.980;2024-02-26T09:09:41;4.40;99.90
5429;DHT22;2737;52.386;9.980;2024-02-26T09:12:08;4.40;99.90
5429;DHT22;2737;52.386;9.980;2024-02-26T09:14:36;4.40;99.90
5429;DHT22;2737;52.386;9.980;2024-02-26T09:17:04;4.50;99.90
5429;DHT22;2737;52.386;9.980;2024-02-26T09:19:31;4.50;99.90
5429;DHT22;2737;52.386;9.980;2024-02-26T09:21:58;4.50;99.90
5429;DHT22;2737;52.386;9.980;2024-02-26T09:24:26;4.60;99.90
5429;DHT22;2737;52.386;9.980;2024-02-26T09:26:53;4.60;99.90
5429;DHT22;2737;52.386;9.980;2024-02-26T09:29:20;4.70;99.90
5429;DHT22;2737;52.386;9.980;2024-02-26T09:31:48;4.70;99.90
5429;DHT22;2737;52.386;9.980;2024-02-26T09:34:15;4.70;99.90
5429;DHT22;2737;52.386;9.980;2024-02-26T09:36:43;4.80;99.90
5429;DHT22;2737;52.386;9.980;2024-02-26T09:39:10;4.80;99.90
5429;DHT22;2737;52.386;9.980;2024-02-26T09:41:40;4.80;99.90
5429;DHT22;2737;52.386;9.980;2024-02-26T09:44:07;4.90;99.90
5429;DHT22;2737;52.386;9.980;2024-02-26T09:46:36;5.00;99.90
5429;DHT22;2737;52.386;9.980;2024-02-26T09:49:05;5.00;99.90
5429;DHT22;2737;52.386;9.980;2024-02-26T09:51:33;5.10;99.90
5429;DHT22;2737;52.386;9.980;2024-02-26T09:54:00;5.10;99.90
5429;DHT22;2737;52.386;9.980;2024-02-26T09:56:28;5.10;99.90
5429;DHT22;2737;52.386;9.980;2024-02-26T09:58:56;5.10;99.90
5429;DHT22;2737;52.386;9.980;2024-02-26T10:01:24;5.20;99.90
5429;DHT22;2737;52.386;9.980;2024-02-26T10:03:54;5.30;99.90
5429;DHT22;2737;52.386;9.980;2024-02-26T10:06:24;5.30;99.90
5429;DHT22;2737;52.386;9.980;2024-02-26T10:08:54;5.30;99.90
5429;DHT22;2737;52.386;9.980;2024-02-26T10:11:22;5.40;99.90
5429;DHT22;2737;52.386;9.980;2024-02-26T10:13:49;5.50;99.90
5429;DHT22;2737;52.386;9.980;2024-02-26T10:16:16;5.50;99.90
5429;DHT22;2737;52.386;9.980;2024-02-26T10:18:47;5.50;99.90
5429;DHT22;2737;52.386;9.980;2024-02-26T10:21:16;5.60;99.90
5429;DHT22;2737;52.386;9.980;2024-02-26T10:23:46;5.60;99.90
5429;DHT22;2737;52.386;9.980;2024-02-26T10:26:15;5.70;99.90
5429;DHT22;2737;52.386;9.980;2024-02-26T10:28:43;5.80;99.90
5429;DHT22;2737;52.386;9.980;2024-02-26T10:31:10;5.90;99.90
5429;DHT22;2737;52.386;9.980;2024-02-26T10:33:38;5.90;99.90
5429;DHT22;2737;52.386;9.980;2024-02-26T10:36:07;6.00;99.90
5429;DHT22;2737;52.386;9.980;2024-02-26T10:38:35;6.10;99.90
5429;DHT22;2737;52.386;9.980;2024-02-26T10:41:04;6.10;99.90
5429;DHT22;2737;52.386;9.980;2024-02-26T10:43:31;6.20;99.90
5429;DHT22;2737;52.386;9.980;2024-02-26T10:45:58;6.30;99.90
5429;DHT22;2737;52.386;9.980;2024-02-26T10:48:25;6.40;99.90
5429;DHT22;2737;52.386;9.980;2024-02-26T10:50:52;6.40;99.90
5429;DHT22;2737;52.386;9.980;2024-02-26T10:53:21;6.40;99.90
5429;DHT22;2737;52.386;9.980;2024-02-26T10:55:53;6.50;99.90
5429;DHT22;2737;52.386;9.980;2024-02-26T10:58:22;6.50;99.90
5429;DHT22;2737;52.386;9.980;2024-02-26T11:00:50;6.50;99.90
5429;DHT22;2737;52.386;9.980;2024-02-26T11:03:18;6.60;99.90
5429;DHT22;2737;52.386;9.980;2024-02-26T11:05:47;6.60;99.90
5429;DHT22;2737;52.386;9.980;2024-02-26T11:08:15;6.60;99.90
5429;DHT22;2737;52.386;9.980;2024-02-26T11:10:43;6.60;99.90
5429;DHT22;2737;52.386;9.980;2024-02-26T11:13:12;6.70;99.90
5429;DHT22;2737;52.386;9.980;2024-02-26T11:15:43;6.70;99.90
5429;DHT22;2737;52.386;9.980;2024-02-26T11:18:10;6.70;99.90
5429;DHT22;2737;52.386;9.980;2024-02-26T11:20:40;6.70;99.90
5429;DHT22;2737;52.386;9.980;2024-02-26T11:23:07;6.70;99.90
5429;DHT22;2737;52.386;9.980;2024-02-26T11:25:35;6.80;99.90
5429;DHT22;2737;52.386;9.980;2024-02-26T11:28:05;6.80;99.90
5429;DHT22;2737;52.386;9.980;2024-02-26T11:30:35;6.80;99.90
5429;DHT22;2737;52.386;9.980;2024-02-26T11:33:06;6.80;99.90
5429;DHT22;2737;52.386;9.980;2024-02-26T11:35:36;6.90;99.90
5429;DHT22;2737;52.386;9.980;2024-02-26T11:38:03;6.90;99.90
5429;DHT22;2737;52.386;9.980;2024-02-26T11:40:32;7.00;99.90
5429;DHT22;2737;52.386;9.980;2024-02-26T11:42:59;7.00;99.90
5429;DHT22;2737;52.386;9.980;2024-02-26T11:45:50;7.10;99.90
5429;DHT22;2737;52.386;9.980;2024-02-26T11:48:24;7.10;99.90
5429;DHT22;2737;52.386;9.980;2024-02-26T11:50:52;7.10;99.90
5429;DHT22;2737;52.386;9.980;2024-02-26T11:53:23;7.10;99.90
5429;DHT22;2737;52.386;9.980;2024-02-26T11:59:00;7.20;99.90
5429;DHT22;2737;52.386;9.980;2024-02-26T12:01:41;7.30;99.90
5429;DHT22;2737;52.386;9.980;2024-02-26T12:04:14;7.30;99.90
5429;DHT22;2737;52.386;9.980;2024-02-26T12:06:46;7.40;99.90
5429;DHT22;2737;52.386;9.980;2024-02-26T12:09:30;7.40;99.90
5429;DHT22;2737;52.386;9.980;2024-02-26T12:11:58;7.50;99.90
5429;DHT22;2737;52.386;9.980;2024-02-26T12:14:25;7.50;99.90
5429;DHT22;2737;52.386;9.980;2024-02-26T12:16:52;7.50;99.90
5429;DHT22;2737;52.386;9.980;2024-02-26T12:19:21;7.50;99.90
5429;DHT22;2737;52.386;9.980;2024-02-26T12:21:51;7.50;99.90
5429;DHT22;2737;52.386;9.980;2024-02-26T12:24:20;7.60;99.90
5429;DHT22;2737;52.386;9.980;2024-02-26T12:26:47;7.60;99.90
5429;DHT22;2737;52.386;9.980;2024-02-26T12:29:14;7.60;99.90
5429;DHT22;2737;52.386;9.980;2024-02-26T12:31:42;7.70;99.90
5429;DHT22;2737;52.386;9.980;2024-02-26T12:34:09;7.70;99.90
5429;DHT22;2737;52.386;9.980;2024-02-26T12:36:38;7.80;99.90
5429;DHT22;2737;52.386;9.980;2024-02-26T12:39:06;7.80;99.90
5429;DHT22;2737;52.386;9.980;2024-02-26T12:41:35;7.90;99.90
5429;DHT22;2737;52.386;9.980;2024-02-26T12:44:02;7.90;99.90
5429;DHT22;2737;52.386;9.980;2024-02-26T12:46:29;7.90;99.90
5429;DHT22;2737;52.386;9.980;2024-02-26T12:48:58;7.90;99.90
5429;DHT22;2737;52.386;9.980;2024-02-26T12:51:25;8.00;99.90
5429;DHT22;2737;52.386;9.980;2024-02-26T12:53:55;8.00;99.90
5429;DHT22;2737;52.386;9.980;2024-02-26T12:56:23;8.00;99.90
5429;DHT22;2737;52.386;9.980;2024-02-26T12:58:51;8.10;99.90
5429;DHT22;2737;52.386;9.980;2024-02-26T13:01:22;8.10;99.90
5429;DHT22;2737;52.386;9.980;2024-02-26T13:03:50;8.20;99.90
5429;DHT22;2737;52.386;9.980;2024-02-26T13:06:19;8.10;99.90
5429;DHT22;2737;52.386;9.980;2024-02-26T13:08:47;8.20;99.90
5429;DHT22;2737;52.386;9.980;2024-02-26T13:11:16;8.20;99.90
5429;DHT22;2737;52.386;9.980;2024-02-26T13:13:47;8.20;99.90
5429;DHT22;2737;52.386;9.980;2024-02-26T13:16:15;8.30;99.90
5429;DHT22;2737;52.386;9.980;2024-02-26T13:18:43;8.30;99.90
5429;DHT22;2737;52.386;9.980;2024-02-26T13:21:13;8.30;99.90
5429;DHT22;2737;52.386;9.980;2024-02-26T13:23:42;8.30;99.90
5429;DHT22;2737;52.386;9.980;2024-02-26T13:26:12;8.30;99.90
5429;DHT22;2737;52.386;9.980;2024-02-26T13:28:41;8.30;99.90
5429;DHT22;2737;52.386;9.980;2024-02-26T13:31:08;8.30;99.90
5429;DHT22;2737;52.386;9.980;2024-02-26T13:33:35;8.30;99.90
5429;DHT22;2737;52.386;9.980;2024-02-26T13:36:03;8.30;99.90
5429;DHT22;2737;52.386;9.980;2024-02-26T13:38:30;8.30;99.90
5429;DHT22;2737;52.386;9.980;2024-02-26T13:40:57;8.30;99.90
5429;DHT22;2737;52.386;9.980;2024-02-26T13:43:24;8.20;99.90
5429;DHT22;2737;52.386;9.980;2024-02-26T13:45:53;8.20;99.90
5429;DHT22;2737;52.386;9.980;2024-02-26T13:48:20;8.20;99.90
5429;DHT22;2737;52.386;9.980;2024-02-26T13:50:48;8.10;99.90
5429;DHT22;2737;52.386;9.980;2024-02-26T13:53:15;8.10;99.90
5429;DHT22;2737;52.386;9.980;2024-02-26T13:55:42;8.10;99.90
5429;DHT22;2737;52.386;9.980;2024-02-26T13:58:11;8.10;99.90
5429;DHT22;2737;52.386;9.980;2024-02-26T14:00:39;8.10;99.90
5429;DHT22;2737;52.386;9.980;2024-02-26T14:03:08;8.10;99.90
5429;DHT22;2737;52.386;9.980;2024-02-26T14:05:35;8.00;99.90
5429;DHT22;2737;52.386;9.980;2024-02-26T14:08:02;8.10;99.90
5429;DHT22;2737;52.386;9.980;2024-02-26T14:10:30;8.10;99.90
5429;DHT22;2737;52.386;9.980;2024-02-26T14:12:57;8.10;99.90
5429;DHT22;2737;52.386;9.980;2024-02-26T14:15:25;8.10;99.90
5429;DHT22;2737;52.386;9.980;2024-02-26T14:17:52;8.20;99.90
5429;DHT22;2737;52.386;9.980;2024-02-26T14:20:23;8.20;99.90
5429;DHT22;2737;52.386;9.980;2024-02-26T14:22:51;8.20;99.90
5429;DHT22;2737;52.386;9.980;2024-02-26T14:25:19;8.10;99.90
5429;DHT22;2737;52.386;9.980;2024-02-26T14:27:46;8.10;99.90
5429;DHT22;2737;52.386;9.980;2024-02-26T14:30:14;8.10;99.90
5429;DHT22;2737;52.386;9.980;2024-02-26T14:32:41;8.00;99.90
5429;DHT22;2737;52.386;9.980;2024-02-26T14:35:09;8.00;99.90
5429;DHT22;2737;52.386;9.980;2024-02-26T14:37:38;8.00;99.90
5429;DHT22;2737;52.386;9.980;2024-02-26T14:40:06;8.00;99.90
5429;DHT22;2737;52.386;9.980;2024-02-26T14:42:34;8.00;99.90
5429;DHT22;2737;52.386;9.980;2024-02-26T14:45:01;8.00;99.90
5429;DHT22;2737;52.386;9.980;2024-02-26T14:47:27;8.00;99.90
5429;DHT22;2737;52.386;9.980;2024-02-26T14:49:54;8.00;99.90
5429;DHT22;2737;52.386;9.980;2024-02-26T14:52:21;8.00;99.90
5429;DHT22;2737;52.386;9.980;2024-02-26T14:54:50;8.00;99.90
5429;DHT22;2737;52.386;9.980;2024-02-26T14:57:18;8.00;99.90
5429;DHT22;2737;52.386;9.980;2024-02-26T14:59:45;8.00;99.90
5429;DHT22;2737;52.386;9.980;2024-02-26T15:02:12;8.00;99.90
5429;DHT22;2737;52.386;9.980;2024-02-26T15:04:39;8.00;99.90
5429;DHT22;2737;52.386;9.980;2024-02-26T15:07:06;8.00;99.90
5429;DHT22;2737;52.386;9.980;2024-02-26T15:09:33;8.00;99.90
5429;DHT22;2737;52.386;9.980;2024-02-26T15:12:03;8.10;99.90
5429;DHT22;2737;52.386;9.980;2024-02-26T15:14:32;8.10;99.90
5429;DHT22;2737;52.386;9.980;2024-02-26T15:16:59;8.10;99.90
5429;DHT22;2737;52.386;9.980;2024-02-26T15:19:26;8.10;99.90
5429;DHT22;2737;52.386;9.980;2024-02-26T15:21:53;8.10;99.90
5429;DHT22;2737;52.386;9.980;2024-02-26T15:24:20;8.10;99.90
5429;DHT22;2737;52.386;9.980;2024-02-26T15:26:47;8.10;99.90
5429;DHT22;2737;52.386;9.980;2024-02-26T15:29:16;8.10;99.90
5429;DHT22;2737;52.386;9.980;2024-02-26T15:31:43;8.10;99.90
5429;DHT22;2737;52.386;9.980;2024-02-26T15:34:10;8.00;99.90
5429;DHT22;2737;52.386;9.980;2024-02-26T15:36:37;8.00;99.90
5429;DHT22;2737;52.386;9.980;2024-02-26T15:39:04;8.00;99.90
5429;DHT22;2737;52.386;9.980;2024-02-26T15:41:33;8.00;99.90
5429;DHT22;2737;52.386;9.980;2024-02-26T15:44:00;8.00;99.90
5429;DHT22;2737;52.386;9.980;2024-02-26T15:46:28;7.90;99.90
5429;DHT22;2737;52.386;9.980;2024-02-26T15:48:55;7.90;99.90
5429;DHT22;2737;52.386;9.980;2024-02-26T15:51:22;7.90;99.90
5429;DHT22;2737;52.386;9.980;2024-02-26T15:53:50;7.90;99.90
5429;DHT22;2737;52.386;9.980;2024-02-26T15:56:18;7.80;99.90
5429;DHT22;2737;52.386;9.980;2024-02-26T15:58:49;7.80;99.90
5429;DHT22;2737;52.386;9.980;2024-02-26T16:01:16;7.80;99.90
5429;DHT22;2737;52.386;9.980;2024-02-26T16:03:44;7.70;99.90
5429;DHT22;2737;52.386;9.980;2024-02-26T16:06:18;7.70;99.90
5429;DHT22;2737;52.386;9.980;2024-02-26T16:08:47;7.70;99.90
5429;DHT22;2737;52.386;9.980;2024-02-26T16:11:14;7.70;99.90
5429;DHT22;2737;52.386;9.980;2024-02-26T16:13:41;7.70;99.90
5429;DHT22;2737;52.386;9.980;2024-02-26T16:16:19;7.70;99.90
5429;DHT22;2737;52.386;9.980;2024-02-26T16:18:49;7.70;99.90
5429;DHT22;2737;52.386;9.980;2024-02-26T16:21:16;7.70;99.90
5429;DHT22;2737;52.386;9.980;2024-02-26T16:23:43;7.70;99.90